createdAt,value
2023-01-13T00:00:05.031Z,2.28
2023-01-13T00:00:38.317Z,2.30
2023-01-13T00:01:14.702Z,2.34
2023-01-13T00:01:46.241Z,2.35
2023-01-13T00:02:17.862Z,2.31
2023-01-13T00:02:49.421Z,2.18
2023-01-13T00:03:20.945Z,2.30
2023-01-13T00:03:53.106Z,2.30
2023-01-13T00:04:24.705Z,2.37
2023-01-13T00:04:56.255Z,2.34
2023-01-13T00:05:28.396Z,2.34
2023-01-13T00:06:00.098Z,2.32
2023-01-13T00:06:31.687Z,2.27
2023-01-13T00:07:03.206Z,2.25
2023-01-13T00:07:34.756Z,2.23
2023-01-13T00:08:06.514Z,2.23
2023-01-13T00:08:38.123Z,2.25
2023-01-13T00:09:09.627Z,2.31
2023-01-13T00:09:41.169Z,2.34
2023-01-13T00:10:12.760Z,2.38
2023-01-13T00:10:48.179Z,2.40
2023-01-13T00:11:20.827Z,2.41
2023-01-13T00:11:52.341Z,2.40
2023-01-13T00:12:23.891Z,2.42
2023-01-13T00:12:55.399Z,2.37
2023-01-13T00:13:26.956Z,2.40
2023-01-13T00:13:58.451Z,2.45
2023-01-13T00:14:30.215Z,2.41
2023-01-13T00:15:01.809Z,2.41
2023-01-13T00:15:33.737Z,2.37
2023-01-13T00:16:07.611Z,2.41
2023-01-13T00:16:39.164Z,2.35
2023-01-13T00:17:10.757Z,2.34
2023-01-13T00:17:42.323Z,2.32
2023-01-13T00:18:14.254Z,2.32
2023-01-13T00:18:46.537Z,2.41
2023-01-13T00:19:18.047Z,2.41
2023-01-13T00:19:49.872Z,2.37
2023-01-13T00:20:21.523Z,2.32
2023-01-13T00:20:58.943Z,2.32
2023-01-13T00:21:30.543Z,2.37
2023-01-13T00:22:02.159Z,2.34
2023-01-13T00:22:34.982Z,2.31
2023-01-13T00:23:06.489Z,2.35
2023-01-13T00:23:39.497Z,2.37
2023-01-13T00:24:11.096Z,2.37
2023-01-13T00:24:42.599Z,2.37
2023-01-13T00:25:14.229Z,2.37
2023-01-13T00:25:45.766Z,2.40
2023-01-13T00:26:20.398Z,2.38
2023-01-13T00:26:52.681Z,2.40
2023-01-13T00:27:25.358Z,2.38
2023-01-13T00:27:56.888Z,2.37
2023-01-13T00:28:28.556Z,2.38
2023-01-13T00:29:00.298Z,2.28
2023-01-13T00:29:31.837Z,2.34
2023-01-13T00:30:04.312Z,2.38
2023-01-13T00:30:38.387Z,2.40
2023-01-13T00:31:16.367Z,2.38
2023-01-13T00:31:49.607Z,2.37
2023-01-13T00:32:21.350Z,2.38
2023-01-13T00:32:52.953Z,2.40
2023-01-13T00:33:25.111Z,2.38
2023-01-13T00:33:57.965Z,2.37
2023-01-13T00:34:29.482Z,2.37
2023-01-13T00:35:01.030Z,2.37
2023-01-13T00:35:32.624Z,2.40
2023-01-13T00:36:05.963Z,2.32
2023-01-13T00:36:37.691Z,2.35
2023-01-13T00:37:12.948Z,2.35
2023-01-13T00:37:44.462Z,2.35
2023-01-13T00:38:16.077Z,2.34
2023-01-13T00:38:47.877Z,2.37
2023-01-13T00:39:19.439Z,2.35
2023-01-13T00:39:52.070Z,2.35
2023-01-13T00:40:23.578Z,2.37
2023-01-13T00:41:07.147Z,2.35
2023-01-13T00:41:57.399Z,2.35
2023-01-13T00:42:47.211Z,2.34
2023-01-13T00:43:24.474Z,2.34
2023-01-13T00:43:56.015Z,2.31
2023-01-13T00:44:27.520Z,2.30
2023-01-13T00:44:59.053Z,2.31
2023-01-13T00:45:30.571Z,2.31
2023-01-13T00:46:03.003Z,2.25
2023-01-13T00:46:34.602Z,2.27
2023-01-13T00:47:06.261Z,2.31
2023-01-13T00:47:37.905Z,2.31
2023-01-13T00:48:09.446Z,2.32
2023-01-13T00:48:41.302Z,2.35
2023-01-13T00:49:12.913Z,2.30
2023-01-13T00:49:44.959Z,2.24
2023-01-13T00:50:16.619Z,2.25
2023-01-13T00:50:55.901Z,2.31
2023-01-13T00:51:27.587Z,2.28
2023-01-13T00:51:59.145Z,2.24
2023-01-13T00:52:32.777Z,2.23
2023-01-13T00:53:04.308Z,2.20
2023-01-13T00:53:38.877Z,2.21
2023-01-13T00:54:10.442Z,2.20
2023-01-13T00:54:41.997Z,2.20
2023-01-13T00:55:13.536Z,2.21
2023-01-13T00:55:45.081Z,2.23
2023-01-13T00:56:38.599Z,2.31
2023-01-13T00:57:11.044Z,2.25
2023-01-13T00:57:42.634Z,2.27
2023-01-13T00:58:14.254Z,2.28
2023-01-13T00:58:46.570Z,2.30
2023-01-13T00:59:18.813Z,2.30
2023-01-13T00:59:50.360Z,2.30
2023-01-13T01:00:21.888Z,2.28
2023-01-13T01:00:53.516Z,2.34
2023-01-13T01:01:25.778Z,2.32
2023-01-13T01:01:57.431Z,2.34
2023-01-13T01:02:29.136Z,2.31
2023-01-13T01:03:01.085Z,2.32
2023-01-13T01:03:33.186Z,2.30
2023-01-13T01:04:04.922Z,2.34
2023-01-13T01:04:36.536Z,2.34
2023-01-13T01:05:08.500Z,2.35
2023-01-13T01:05:40.214Z,2.38
2023-01-13T01:06:21.544Z,2.35
2023-01-13T01:06:53.114Z,2.35
2023-01-13T01:07:24.653Z,2.37
2023-01-13T01:07:56.220Z,2.34
2023-01-13T01:08:27.762Z,2.38
2023-01-13T01:08:59.309Z,2.37
2023-01-13T01:09:33.558Z,2.38
2023-01-13T01:10:05.498Z,2.37
2023-01-13T01:10:37.087Z,2.35
2023-01-13T01:11:13.850Z,2.42
2023-01-13T01:11:45.381Z,2.42
2023-01-13T01:12:16.900Z,2.42
2023-01-13T01:12:48.417Z,2.48
2023-01-13T01:13:19.945Z,2.49
2023-01-13T01:13:52.630Z,2.46
2023-01-13T01:14:24.329Z,2.52
2023-01-13T01:14:55.891Z,2.53
2023-01-13T01:15:27.455Z,2.56
2023-01-13T01:15:59.117Z,2.55
2023-01-13T01:16:32.266Z,2.58
2023-01-13T01:17:03.818Z,2.58
2023-01-13T01:17:37.935Z,2.59
2023-01-13T01:18:09.779Z,2.62
2023-01-13T01:18:43.421Z,2.65
2023-01-13T01:19:14.965Z,2.63
2023-01-13T01:19:46.517Z,2.69
2023-01-13T01:20:18.186Z,2.66
2023-01-13T01:20:49.949Z,2.66
2023-01-13T01:21:23.553Z,2.68
2023-01-13T01:21:55.128Z,2.73
2023-01-13T01:22:26.664Z,2.66
2023-01-13T01:22:58.188Z,2.73
2023-01-13T01:23:30.110Z,2.72
2023-01-13T01:24:03.579Z,2.68
2023-01-13T01:24:35.239Z,2.65
2023-01-13T01:25:07.393Z,2.65
2023-01-13T01:25:38.915Z,2.59
2023-01-13T01:26:22.297Z,2.58
2023-01-13T01:26:53.993Z,2.52
2023-01-13T01:27:25.653Z,2.52
2023-01-13T01:27:57.154Z,2.53
2023-01-13T01:28:28.715Z,2.51
2023-01-13T01:29:02.271Z,2.56
2023-01-13T01:29:33.892Z,2.55
2023-01-13T01:30:06.040Z,2.58
2023-01-13T01:30:39.551Z,2.56
2023-01-13T01:31:20.315Z,2.61
2023-01-13T01:31:51.887Z,2.62
2023-01-13T01:32:23.455Z,2.65
2023-01-13T01:32:57.181Z,2.65
2023-01-13T01:33:28.749Z,2.62
2023-01-13T01:34:01.097Z,2.65
2023-01-13T01:34:32.783Z,2.63
2023-01-13T01:35:04.892Z,2.62
2023-01-13T01:35:40.024Z,2.66
2023-01-13T01:36:12.367Z,2.68
2023-01-13T01:36:43.897Z,2.68
2023-01-13T01:37:15.429Z,2.69
2023-01-13T01:37:46.939Z,2.71
2023-01-13T01:38:18.622Z,2.73
2023-01-13T01:38:50.480Z,2.71
2023-01-13T01:39:21.996Z,2.68
2023-01-13T01:39:53.543Z,2.69
2023-01-13T01:40:27.566Z,2.65
2023-01-13T01:40:59.714Z,2.66
2023-01-13T01:41:33.413Z,2.69
2023-01-13T01:42:23.744Z,2.68
2023-01-13T01:43:13.614Z,2.65
2023-01-13T01:44:02.245Z,2.63
2023-01-13T01:44:42.970Z,2.62
2023-01-13T01:45:21.433Z,2.63
2023-01-13T01:45:53.553Z,2.68
2023-01-13T01:46:40.367Z,2.62
2023-01-13T01:47:16.537Z,2.59
2023-01-13T01:47:52.635Z,2.59
2023-01-13T01:48:24.387Z,2.62
2023-01-13T01:49:02.857Z,2.65
2023-01-13T01:49:36.461Z,2.68
2023-01-13T01:50:09.568Z,2.63
2023-01-13T01:50:41.201Z,2.68
2023-01-13T01:51:13.545Z,2.73
2023-01-13T01:51:52.710Z,2.73
2023-01-13T01:52:32.026Z,2.75
2023-01-13T01:53:15.597Z,2.71
2023-01-13T01:53:48.066Z,2.71
2023-01-13T01:54:28.484Z,2.75
2023-01-13T01:55:12.146Z,2.76
2023-01-13T01:55:43.805Z,2.81
2023-01-13T01:56:15.804Z,2.76
2023-01-13T01:56:48.196Z,2.82
2023-01-13T01:57:27.129Z,2.79
2023-01-13T01:58:17.427Z,2.75
2023-01-13T01:58:52.186Z,2.81
2023-01-13T01:59:25.475Z,2.81
2023-01-13T01:59:58.949Z,2.82
2023-01-13T02:01:12.591Z,2.86
2023-01-13T02:01:44.806Z,2.86
2023-01-13T02:02:16.816Z,2.86
2023-01-13T02:02:50.319Z,2.85
2023-01-13T02:03:21.965Z,2.71
2023-01-13T02:03:59.379Z,2.65
2023-01-13T02:04:36.296Z,2.63
2023-01-13T02:05:08.226Z,2.59
2023-01-13T02:05:39.823Z,2.61
2023-01-13T02:06:12.344Z,2.65
2023-01-13T02:06:45.005Z,2.69
2023-01-13T02:07:20.313Z,2.78
2023-01-13T02:07:54.462Z,2.82
2023-01-13T02:08:26.298Z,2.88
2023-01-13T02:09:00.637Z,2.93
2023-01-13T02:09:33.409Z,2.86
2023-01-13T02:10:09.778Z,2.96
2023-01-13T02:10:42.958Z,2.99
2023-01-13T02:11:51.503Z,2.97
2023-01-13T02:12:34.754Z,2.86
2023-01-13T02:13:10.687Z,2.89
2023-01-13T02:13:42.214Z,2.88
2023-01-13T02:14:14.058Z,2.90
2023-01-13T02:14:45.818Z,2.99
2023-01-13T02:15:22.258Z,3.02
2023-01-13T02:16:20.056Z,2.99
2023-01-13T02:17:03.668Z,2.96
2023-01-13T02:17:47.906Z,2.96
2023-01-13T02:18:36.431Z,3.00
2023-01-13T02:19:45.603Z,2.99
2023-01-13T02:20:38.440Z,3.07
2023-01-13T02:21:27.194Z,3.03
2023-01-13T02:22:35.752Z,3.03
2023-01-13T02:23:44.791Z,3.04
2023-01-13T02:24:40.614Z,3.03
2023-01-13T02:25:43.271Z,3.03
2023-01-13T02:26:58.459Z,2.85
2023-01-13T02:27:54.007Z,2.97
2023-01-13T02:29:16.622Z,3.04
2023-01-13T02:30:41.381Z,2.93
2023-01-13T02:31:35.527Z,2.88
2023-01-13T02:32:34.167Z,2.92
2023-01-13T02:33:22.689Z,2.96
2023-01-13T02:33:54.188Z,2.96
2023-01-13T02:34:55.048Z,2.90
2023-01-13T02:35:33.454Z,2.88
2023-01-13T02:36:19.015Z,2.75
2023-01-13T02:37:00.785Z,2.85
2023-01-13T02:37:35.340Z,2.86
2023-01-13T02:38:11.107Z,2.90
2023-01-13T02:38:57.264Z,2.90
2023-01-13T02:39:41.584Z,2.89
2023-01-13T02:40:27.429Z,2.83
2023-01-13T02:41:33.893Z,2.93
2023-01-13T02:42:35.465Z,2.90
2023-01-13T02:43:35.347Z,2.85
2023-01-13T02:44:10.555Z,2.88
2023-01-13T02:44:48.522Z,2.83
2023-01-13T02:45:26.409Z,2.75
2023-01-13T02:46:17.685Z,2.66
2023-01-13T02:47:00.857Z,2.76
2023-01-13T02:47:37.789Z,2.79
2023-01-13T02:48:11.546Z,2.81
2023-01-13T02:48:45.575Z,2.79
2023-01-13T02:49:25.085Z,2.78
2023-01-13T02:50:02.164Z,2.79
2023-01-13T02:50:41.126Z,2.78
2023-01-13T02:51:17.302Z,2.82
2023-01-13T02:51:50.683Z,2.86
2023-01-13T02:52:45.835Z,2.78
2023-01-13T02:53:30.369Z,2.81
2023-01-13T02:54:13.228Z,2.81
2023-01-13T02:54:51.135Z,2.82
2023-01-13T02:55:29.063Z,2.85
2023-01-13T02:56:03.171Z,2.90
2023-01-13T02:56:40.251Z,2.92
2023-01-13T02:57:13.957Z,2.97
2023-01-13T02:57:47.765Z,2.93
2023-01-13T02:58:24.417Z,2.93
2023-01-13T02:58:57.701Z,2.88
2023-01-13T02:59:31.374Z,2.89
2023-01-13T03:00:05.939Z,2.82
2023-01-13T03:00:38.370Z,2.83
2023-01-13T03:01:10.180Z,2.95
2023-01-13T03:01:42.751Z,2.90
2023-01-13T03:02:18.851Z,2.81
2023-01-13T03:02:50.746Z,2.76
2023-01-13T03:03:22.386Z,2.83
2023-01-13T03:03:53.971Z,2.83
2023-01-13T03:04:57.183Z,2.89
2023-01-13T03:05:31.802Z,2.82
2023-01-13T03:06:30.360Z,2.82
2023-01-13T03:07:12.987Z,2.78
2023-01-13T03:08:15.621Z,2.66
2023-01-13T03:08:58.679Z,2.68
2023-01-13T03:09:40.453Z,2.66
2023-01-13T03:10:33.389Z,2.55
2023-01-13T03:11:08.216Z,2.27
2023-01-13T03:11:53.438Z,2.32
2023-01-13T03:12:51.988Z,2.41
2023-01-13T03:13:52.759Z,2.46
2023-01-13T03:14:27.456Z,2.49
2023-01-13T03:15:22.190Z,2.61
2023-01-13T03:15:53.794Z,2.62
2023-01-13T03:16:53.137Z,2.68
2023-01-13T03:17:32.860Z,2.63
2023-01-13T03:18:29.762Z,2.55
2023-01-13T03:19:21.693Z,2.41
2023-01-13T03:20:37.575Z,2.42
2023-01-13T03:21:37.137Z,2.28
2023-01-13T03:22:08.689Z,2.32
2023-01-13T03:22:50.588Z,2.40
2023-01-13T03:23:33.064Z,2.44
2023-01-13T03:24:26.470Z,2.48
2023-01-13T03:25:02.229Z,2.46
2023-01-13T03:25:47.305Z,2.56
2023-01-13T03:26:33.582Z,2.51
2023-01-13T03:27:16.729Z,2.56
2023-01-13T03:27:54.797Z,2.62
2023-01-13T03:28:31.806Z,2.61
2023-01-13T03:29:14.865Z,2.63
2023-01-13T03:29:54.076Z,2.58
2023-01-13T03:30:36.848Z,2.63
2023-01-13T03:31:19.309Z,2.61
2023-01-13T03:32:06.742Z,2.68
2023-01-13T03:32:42.378Z,2.68
2023-01-13T03:33:19.720Z,2.71
2023-01-13T03:34:03.307Z,2.72
2023-01-13T03:34:45.889Z,2.62
2023-01-13T03:35:31.004Z,2.69
2023-01-13T03:36:08.076Z,2.75
2023-01-13T03:36:41.524Z,2.76
2023-01-13T03:37:16.896Z,2.72
2023-01-13T03:37:55.814Z,2.71
2023-01-13T03:38:36.649Z,2.75
2023-01-13T03:39:12.573Z,2.75
2023-01-13T03:39:50.123Z,2.75
2023-01-13T03:40:29.209Z,2.73
2023-01-13T03:41:06.621Z,2.71
2023-01-13T03:41:49.021Z,2.75
2023-01-13T03:42:24.643Z,2.69
2023-01-13T03:43:21.786Z,2.65
2023-01-13T03:44:23.985Z,2.68
2023-01-13T03:45:05.348Z,2.73
2023-01-13T03:45:40.044Z,2.72
2023-01-13T03:46:22.609Z,2.86
2023-01-13T03:47:12.815Z,2.79
2023-01-13T03:47:56.232Z,2.79
2023-01-13T03:48:31.712Z,2.78
2023-01-13T03:49:05.616Z,2.88
2023-01-13T03:49:39.961Z,2.95
2023-01-13T03:50:27.851Z,2.93
2023-01-13T03:51:06.398Z,2.90
2023-01-13T03:51:41.261Z,2.95
2023-01-13T03:52:41.820Z,2.97
2023-01-13T03:53:34.601Z,2.90
2023-01-13T03:54:11.688Z,2.82
2023-01-13T03:54:50.620Z,2.89
2023-01-13T03:55:45.245Z,2.86
2023-01-13T03:56:25.635Z,2.88
2023-01-13T03:57:01.251Z,2.82
2023-01-13T03:57:38.529Z,2.81
2023-01-13T03:58:19.526Z,2.81
2023-01-13T03:58:53.187Z,2.83
2023-01-13T03:59:29.548Z,2.90
2023-01-13T04:00:04.348Z,2.93
2023-01-13T04:00:52.004Z,2.90
2023-01-13T04:01:40.172Z,2.86
2023-01-13T04:02:28.492Z,2.81
2023-01-13T04:03:13.211Z,2.83
2023-01-13T04:03:55.622Z,2.90
2023-01-13T04:04:33.021Z,2.99
2023-01-13T04:05:09.293Z,2.96
2023-01-13T04:05:47.484Z,2.96
2023-01-13T04:06:40.464Z,2.92
2023-01-13T04:07:30.682Z,2.89
2023-01-13T04:08:14.623Z,2.86
2023-01-13T04:08:53.634Z,2.96
2023-01-13T04:09:40.352Z,2.86
2023-01-13T04:10:14.054Z,2.83
2023-01-13T04:10:52.027Z,2.85
2023-01-13T04:11:38.009Z,2.92
2023-01-13T04:12:12.687Z,2.96
2023-01-13T04:13:02.224Z,3.02
2023-01-13T04:13:38.261Z,2.99
2023-01-13T04:14:11.939Z,2.95
2023-01-13T04:14:44.583Z,2.88
2023-01-13T04:15:18.690Z,2.89
2023-01-13T04:15:50.469Z,2.89
2023-01-13T04:16:22.235Z,2.92
2023-01-13T04:16:53.910Z,2.88
2023-01-13T04:17:25.540Z,2.92
2023-01-13T04:18:27.339Z,2.95
2023-01-13T04:18:58.959Z,2.89
2023-01-13T04:19:31.769Z,2.97
2023-01-13T04:20:03.421Z,2.97
2023-01-13T04:20:35.471Z,3.00
2023-01-13T04:21:07.807Z,3.04
2023-01-13T04:21:39.458Z,3.04
2023-01-13T04:22:11.073Z,3.00
2023-01-13T04:22:42.703Z,3.03
2023-01-13T04:23:15.160Z,3.06
2023-01-13T04:23:46.741Z,3.03
2023-01-13T04:24:18.429Z,3.11
2023-01-13T04:24:50.007Z,3.11
2023-01-13T04:25:21.607Z,3.13
2023-01-13T04:25:53.220Z,3.06
2023-01-13T04:26:24.878Z,3.07
2023-01-13T04:26:56.614Z,3.11
2023-01-13T04:27:28.207Z,3.04
2023-01-13T04:27:59.795Z,3.04
2023-01-13T04:28:31.464Z,3.04
2023-01-13T04:29:03.125Z,3.10
2023-01-13T04:29:35.315Z,3.07
2023-01-13T04:30:07.508Z,3.00
2023-01-13T04:30:39.316Z,3.02
2023-01-13T04:31:11.010Z,3.10
2023-01-13T04:31:42.997Z,3.09
2023-01-13T04:32:14.657Z,3.09
2023-01-13T04:32:46.271Z,3.04
2023-01-13T04:33:19.332Z,3.00
2023-01-13T04:33:50.960Z,3.02
2023-01-13T04:34:22.592Z,2.93
2023-01-13T04:34:54.299Z,3.02
2023-01-13T04:35:25.956Z,2.97
2023-01-13T04:35:57.524Z,2.93
2023-01-13T04:36:29.197Z,2.96
2023-01-13T04:37:00.790Z,2.99
2023-01-13T04:37:32.338Z,3.00
2023-01-13T04:38:07.824Z,3.02
2023-01-13T04:38:39.475Z,3.04
2023-01-13T04:39:11.081Z,2.99
2023-01-13T04:39:42.660Z,2.90
2023-01-13T04:40:14.233Z,2.92
2023-01-13T04:40:45.874Z,2.92
2023-01-13T04:41:17.433Z,2.86
2023-01-13T04:41:57.810Z,2.88
2023-01-13T04:42:29.444Z,2.89
2023-01-13T04:43:01.173Z,2.86
2023-01-13T04:43:32.808Z,2.92
2023-01-13T04:44:04.556Z,2.89
2023-01-13T04:44:36.774Z,2.86
2023-01-13T04:45:09.610Z,2.90
2023-01-13T04:45:42.474Z,2.92
2023-01-13T04:46:14.366Z,2.92
2023-01-13T04:46:46.673Z,2.88
2023-01-13T04:47:18.351Z,2.89
2023-01-13T04:47:49.963Z,2.92
2023-01-13T04:48:21.599Z,2.95
2023-01-13T04:48:53.153Z,2.96
2023-01-13T04:49:24.728Z,2.92
2023-01-13T04:49:56.266Z,2.92
2023-01-13T04:50:28.143Z,2.90
2023-01-13T04:50:59.776Z,2.93
2023-01-13T04:51:31.369Z,2.93
2023-01-13T04:52:03.978Z,2.99
2023-01-13T04:52:35.629Z,2.99
2023-01-13T04:53:07.282Z,3.03
2023-01-13T04:53:38.832Z,3.04
2023-01-13T04:54:11.374Z,3.04
2023-01-13T04:54:42.941Z,2.96
2023-01-13T04:55:14.678Z,2.89
2023-01-13T04:55:47.933Z,2.83
2023-01-13T04:56:19.478Z,2.79
2023-01-13T04:56:51.088Z,2.79
2023-01-13T04:57:22.658Z,2.79
2023-01-13T04:57:54.335Z,2.79
2023-01-13T04:58:26.023Z,2.73
2023-01-13T04:58:57.621Z,2.81
2023-01-13T04:59:29.171Z,2.76
2023-01-13T05:00:02.077Z,2.83
2023-01-13T05:00:34.195Z,2.73
2023-01-13T05:01:05.759Z,2.71
2023-01-13T05:01:37.981Z,2.66
2023-01-13T05:02:09.922Z,2.66
2023-01-13T05:02:41.731Z,2.61
2023-01-13T05:03:13.404Z,2.58
2023-01-13T05:03:45.020Z,2.59
2023-01-13T05:04:17.130Z,2.66
2023-01-13T05:04:49.043Z,2.63
2023-01-13T05:05:20.698Z,2.62
2023-01-13T05:05:52.319Z,2.65
2023-01-13T05:06:23.967Z,2.63
2023-01-13T05:06:55.702Z,2.61
2023-01-13T05:07:27.661Z,2.61
2023-01-13T05:07:59.516Z,2.66
2023-01-13T05:08:31.065Z,2.75
2023-01-13T05:09:02.879Z,2.72
2023-01-13T05:09:34.521Z,2.71
2023-01-13T05:10:06.428Z,2.76
2023-01-13T05:10:37.977Z,2.79
2023-01-13T05:11:28.122Z,2.73
2023-01-13T05:12:18.603Z,2.68
2023-01-13T05:13:16.309Z,2.73
2023-01-13T05:14:06.214Z,2.58
2023-01-13T05:14:56.245Z,2.69
2023-01-13T05:15:46.844Z,2.61
2023-01-13T05:16:36.819Z,2.61
2023-01-13T05:17:10.070Z,2.58
2023-01-13T05:17:42.227Z,2.52
2023-01-13T05:18:13.932Z,2.53
2023-01-13T05:18:45.828Z,2.53
2023-01-13T05:19:17.371Z,2.52
2023-01-13T05:19:49.004Z,2.52
2023-01-13T05:20:20.615Z,2.55
2023-01-13T05:20:52.557Z,2.56
2023-01-13T05:21:42.834Z,2.53
2023-01-13T05:22:33.848Z,2.45
2023-01-13T05:23:24.306Z,2.46
2023-01-13T05:24:14.610Z,2.46
2023-01-13T05:25:05.235Z,2.45
2023-01-13T05:25:39.811Z,2.46
2023-01-13T05:26:11.837Z,2.45
2023-01-13T05:26:43.509Z,2.51
2023-01-13T05:27:15.088Z,2.48
2023-01-13T05:27:46.632Z,2.44
2023-01-13T05:28:18.223Z,2.48
2023-01-13T05:28:49.804Z,2.41
2023-01-13T05:29:21.395Z,2.41
2023-01-13T05:29:53.801Z,2.38
2023-01-13T05:30:30.690Z,2.41
2023-01-13T05:31:02.368Z,2.34
2023-01-13T05:31:33.980Z,2.37
2023-01-13T05:32:08.015Z,2.44
2023-01-13T05:32:39.850Z,2.40
2023-01-13T05:33:13.406Z,2.34
2023-01-13T05:33:45.024Z,2.31
2023-01-13T05:34:16.612Z,2.41
2023-01-13T05:34:48.372Z,2.48
2023-01-13T05:35:20.423Z,2.48
2023-01-13T05:35:52.407Z,2.49
2023-01-13T05:36:24.012Z,2.52
2023-01-13T05:36:55.642Z,2.48
2023-01-13T05:37:27.865Z,2.53
2023-01-13T05:37:59.469Z,2.48
2023-01-13T05:38:31.156Z,2.53
2023-01-13T05:39:02.826Z,2.52
2023-01-13T05:39:52.661Z,2.46
2023-01-13T05:40:42.638Z,2.41
2023-01-13T05:41:32.655Z,2.41
2023-01-13T05:42:22.950Z,2.48
2023-01-13T05:43:20.048Z,2.46
2023-01-13T05:43:51.621Z,2.53
2023-01-13T05:44:23.187Z,2.59
2023-01-13T05:44:54.770Z,2.56
2023-01-13T05:45:26.426Z,2.56
2023-01-13T05:45:58.033Z,2.49
2023-01-13T05:46:29.636Z,2.49
2023-01-13T05:47:01.231Z,2.51
2023-01-13T05:47:32.862Z,2.48
2023-01-13T05:48:04.474Z,2.44
2023-01-13T05:48:42.237Z,2.49
2023-01-13T05:49:13.847Z,2.52
2023-01-13T05:49:45.402Z,2.55
2023-01-13T05:50:17.048Z,2.46
2023-01-13T05:50:49.664Z,2.38
2023-01-13T05:51:26.237Z,2.41
2023-01-13T05:51:57.997Z,2.45
2023-01-13T05:52:29.542Z,2.46
2023-01-13T05:53:01.132Z,2.51
2023-01-13T05:53:33.584Z,2.51
2023-01-13T05:54:05.168Z,2.51
2023-01-13T05:54:36.746Z,2.53
2023-01-13T05:55:08.716Z,2.53
2023-01-13T05:55:41.523Z,2.55
2023-01-13T05:56:13.195Z,2.56
2023-01-13T05:56:44.788Z,2.58
2023-01-13T05:57:16.559Z,2.51
2023-01-13T05:57:48.197Z,2.45
2023-01-13T05:58:21.496Z,2.46
2023-01-13T05:58:53.097Z,2.38
2023-01-13T05:59:24.655Z,2.32
2023-01-13T05:59:56.198Z,2.31
2023-01-13T06:00:27.803Z,2.35
2023-01-13T06:01:03.208Z,2.41
2023-01-13T06:01:37.179Z,2.37
2023-01-13T06:02:08.912Z,2.41
2023-01-13T06:02:40.567Z,2.32
2023-01-13T06:03:13.115Z,2.35
2023-01-13T06:03:44.758Z,2.41
2023-01-13T06:04:16.328Z,2.38
2023-01-13T06:04:48.036Z,2.38
2023-01-13T06:05:19.614Z,2.35
2023-01-13T06:05:53.512Z,2.35
2023-01-13T06:06:25.087Z,2.40
2023-01-13T06:06:56.698Z,2.42
2023-01-13T06:07:28.251Z,2.35
2023-01-13T06:08:00.768Z,2.40
2023-01-13T06:08:32.696Z,2.37
2023-01-13T06:09:04.280Z,2.37
2023-01-13T06:09:35.848Z,2.45
2023-01-13T06:10:08.497Z,2.46
2023-01-13T06:10:40.041Z,2.48
2023-01-13T06:11:11.658Z,2.46
2023-01-13T06:11:43.301Z,2.51
2023-01-13T06:12:15.229Z,2.51
2023-01-13T06:12:46.773Z,2.46
2023-01-13T06:13:18.315Z,2.48
2023-01-13T06:13:49.901Z,2.49
2023-01-13T06:14:21.473Z,2.48
2023-01-13T06:14:53.090Z,2.52
2023-01-13T06:15:25.374Z,2.58
2023-01-13T06:15:58.919Z,2.61
2023-01-13T06:16:30.619Z,2.58
2023-01-13T06:17:02.280Z,2.63
2023-01-13T06:17:33.914Z,2.62
2023-01-13T06:18:06.036Z,2.62
2023-01-13T06:18:37.634Z,2.66
2023-01-13T06:19:12.937Z,2.69
2023-01-13T06:19:44.519Z,2.71
2023-01-13T06:20:16.848Z,2.75
2023-01-13T06:20:48.432Z,2.71
2023-01-13T06:21:19.973Z,2.75
2023-01-13T06:21:52.162Z,2.81
2023-01-13T06:22:27.220Z,2.81
2023-01-13T06:22:59.143Z,2.83
2023-01-13T06:23:35.027Z,2.82
2023-01-13T06:24:08.050Z,2.78
2023-01-13T06:24:40.055Z,2.76
2023-01-13T06:25:17.433Z,2.82
2023-01-13T06:26:15.635Z,2.76
2023-01-13T06:26:47.323Z,2.76
2023-01-13T06:27:19.099Z,2.79
2023-01-13T06:27:51.493Z,2.79
2023-01-13T06:28:23.143Z,2.82
2023-01-13T06:28:54.707Z,2.88
2023-01-13T06:29:26.296Z,2.83
2023-01-13T06:29:57.966Z,2.83
2023-01-13T06:30:35.779Z,2.81
2023-01-13T06:31:10.855Z,2.83
2023-01-13T06:31:43.034Z,2.82
2023-01-13T06:32:22.006Z,2.82
2023-01-13T06:32:58.796Z,2.82
2023-01-13T06:33:34.969Z,2.82
2023-01-13T06:34:12.156Z,2.82
2023-01-13T06:34:47.652Z,2.83
2023-01-13T06:35:28.460Z,2.88
2023-01-13T06:36:03.417Z,2.89
2023-01-13T06:36:39.671Z,2.86
2023-01-13T06:37:14.192Z,2.92
2023-01-13T06:37:50.904Z,2.92
2023-01-13T06:38:25.886Z,2.90
2023-01-13T06:39:00.959Z,2.93
2023-01-13T06:39:34.120Z,2.93
2023-01-13T06:40:07.083Z,2.93
2023-01-13T06:40:39.222Z,2.89
2023-01-13T06:41:10.857Z,2.95
2023-01-13T06:42:01.017Z,2.93
2023-01-13T06:42:53.302Z,3.00
2023-01-13T06:43:25.209Z,2.96
2023-01-13T06:43:57.422Z,2.97
2023-01-13T06:44:29.114Z,3.03
2023-01-13T06:45:00.779Z,3.00
2023-01-13T06:45:32.394Z,3.02
2023-01-13T06:46:04.061Z,3.04
2023-01-13T06:46:35.825Z,2.97
2023-01-13T06:47:07.924Z,2.93
2023-01-13T06:47:39.676Z,2.93
2023-01-13T06:48:11.346Z,2.97
2023-01-13T06:48:42.946Z,2.96
2023-01-13T06:49:14.620Z,3.02
2023-01-13T06:49:46.178Z,3.07
2023-01-13T06:50:18.757Z,3.11
2023-01-13T06:50:50.387Z,3.07
2023-01-13T06:51:21.978Z,3.13
2023-01-13T06:51:53.558Z,3.13
2023-01-13T06:52:25.276Z,3.10
2023-01-13T06:52:56.904Z,3.09
2023-01-13T06:53:28.470Z,3.10
2023-01-13T06:54:00.057Z,3.07
2023-01-13T06:54:31.954Z,3.10
2023-01-13T06:55:04.045Z,3.07
2023-01-13T06:55:36.047Z,3.11
2023-01-13T06:56:07.759Z,3.07
2023-01-13T06:56:39.341Z,3.10
2023-01-13T06:57:10.940Z,3.11
2023-01-13T06:57:53.328Z,3.13
2023-01-13T06:58:25.003Z,3.11
2023-01-13T06:58:56.559Z,3.16
2023-01-13T06:59:28.225Z,3.19
2023-01-13T06:59:59.807Z,3.23
2023-01-13T07:00:32.933Z,3.23
2023-01-13T07:01:04.797Z,3.16
2023-01-13T07:01:36.522Z,3.14
2023-01-13T07:02:08.273Z,3.11
2023-01-13T07:02:39.910Z,3.07
2023-01-13T07:03:16.495Z,3.10
2023-01-13T07:03:48.109Z,3.17
2023-01-13T07:04:19.735Z,3.17
2023-01-13T07:04:51.306Z,3.14
2023-01-13T07:05:22.930Z,3.09
2023-01-13T07:05:55.745Z,3.13
2023-01-13T07:06:27.335Z,3.09
2023-01-13T07:06:58.912Z,3.02
2023-01-13T07:07:30.467Z,2.99
2023-01-13T07:08:02.041Z,3.03
2023-01-13T07:08:33.597Z,3.10
2023-01-13T07:09:06.765Z,3.11
2023-01-13T07:09:38.749Z,3.07
2023-01-13T07:10:13.249Z,3.11
2023-01-13T07:10:44.844Z,3.11
2023-01-13T07:11:16.474Z,3.14
2023-01-13T07:11:48.193Z,3.11
2023-01-13T07:12:19.750Z,3.11
2023-01-13T07:13:09.604Z,3.09
2023-01-13T07:13:59.470Z,3.11
2023-01-13T07:14:49.492Z,3.19
2023-01-13T07:15:21.176Z,3.17
2023-01-13T07:15:56.452Z,3.16
2023-01-13T07:16:28.275Z,3.20
2023-01-13T07:16:59.860Z,3.16
2023-01-13T07:17:31.436Z,3.10
2023-01-13T07:18:03.370Z,3.13
2023-01-13T07:18:35.744Z,3.14
2023-01-13T07:19:07.347Z,3.16
2023-01-13T07:19:38.931Z,3.21
2023-01-13T07:20:11.050Z,3.14
2023-01-13T07:20:42.626Z,3.19
2023-01-13T07:21:18.783Z,3.19
2023-01-13T07:21:52.101Z,3.23
2023-01-13T07:22:24.562Z,3.34
2023-01-13T07:22:57.708Z,3.28
2023-01-13T07:23:31.535Z,3.33
2023-01-13T07:24:03.155Z,3.33
2023-01-13T07:24:34.728Z,3.31
2023-01-13T07:25:06.928Z,3.37
2023-01-13T07:25:38.504Z,3.41
2023-01-13T07:26:11.332Z,3.42
2023-01-13T07:26:42.895Z,3.47
2023-01-13T07:27:14.465Z,3.44
2023-01-13T07:27:46.050Z,3.57
2023-01-13T07:28:17.654Z,3.51
2023-01-13T07:28:49.255Z,3.54
2023-01-13T07:29:20.846Z,3.55
2023-01-13T07:29:52.465Z,3.64
2023-01-13T07:30:24.070Z,3.64
2023-01-13T07:30:57.555Z,3.44
2023-01-13T07:31:29.227Z,3.57
2023-01-13T07:32:01.464Z,3.58
2023-01-13T07:32:34.048Z,3.64
2023-01-13T07:33:05.604Z,3.65
2023-01-13T07:33:37.179Z,3.70
2023-01-13T07:34:08.833Z,3.74
2023-01-13T07:34:40.454Z,3.75
2023-01-13T07:35:12.137Z,3.74
2023-01-13T07:35:43.788Z,3.67
2023-01-13T07:36:15.676Z,3.65
2023-01-13T07:36:47.327Z,3.74
2023-01-13T07:37:18.914Z,3.81
2023-01-13T07:37:50.680Z,3.91
2023-01-13T07:38:22.457Z,3.92
2023-01-13T07:38:54.904Z,3.98
2023-01-13T07:39:26.618Z,3.92
2023-01-13T07:39:58.160Z,3.95
2023-01-13T07:40:29.749Z,3.96
2023-01-13T07:41:20.352Z,4.00
2023-01-13T07:42:10.300Z,3.88
2023-01-13T07:43:00.182Z,3.96
2023-01-13T07:43:34.370Z,4.00
2023-01-13T07:44:06.422Z,3.99
2023-01-13T07:44:38.040Z,4.06
2023-01-13T07:45:12.202Z,4.07
2023-01-13T07:45:44.024Z,4.07
2023-01-13T07:46:16.030Z,4.05
2023-01-13T07:46:47.647Z,4.03
2023-01-13T07:47:23.209Z,4.09
2023-01-13T07:47:54.821Z,4.05
2023-01-13T07:48:27.718Z,4.14
2023-01-13T07:49:00.808Z,4.10
2023-01-13T07:49:33.247Z,4.16
2023-01-13T07:50:05.287Z,4.14
2023-01-13T07:50:37.129Z,4.10
2023-01-13T07:51:10.818Z,4.12
2023-01-13T07:51:42.465Z,4.20
2023-01-13T07:52:14.058Z,4.21
2023-01-13T07:52:45.700Z,4.26
2023-01-13T07:53:17.309Z,4.24
2023-01-13T07:53:49.311Z,4.23
2023-01-13T07:54:25.508Z,4.34
2023-01-13T07:55:03.364Z,4.34
2023-01-13T07:55:34.993Z,4.33
2023-01-13T07:56:07.556Z,4.36
2023-01-13T07:56:39.224Z,4.34